createdAt,value
2022-09-05T00:00:27.903Z,100.00
2022-09-05T00:15:23.961Z,100.00
2022-09-05T00:31:51.664Z,100.00
2022-09-05T00:45:24.119Z,100.00
2022-09-05T01:00:24.872Z,100.00
2022-09-05T01:15:24.142Z,100.00
2022-09-05T01:30:24.119Z,100.00
2022-09-05T01:45:24.630Z,100.00
2022-09-05T02:00:34.596Z,100.00
2022-09-05T02:15:24.152Z,100.00
2022-09-05T02:30:24.521Z,100.00
2022-09-05T02:45:26.626Z,100.00
2022-09-05T03:00:27.877Z,100.00
2022-09-05T03:15:24.247Z,100.00
2022-09-05T03:30:33.308Z,100.00
2022-09-05T03:45:37.438Z,100.00
2022-09-05T04:00:33.820Z,100.00
2022-09-05T04:15:23.396Z,100.00
2022-09-05T04:30:38.937Z,100.00
2022-09-05T04:45:24.515Z,100.00
2022-09-05T05:05:58.591Z,100.00
2022-09-05T05:18:16.390Z,100.00
2022-09-05T05:30:23.525Z,100.00
2022-09-05T05:45:23.451Z,100.00
2022-09-05T06:00:28.255Z,100.00
2022-09-05T06:15:24.131Z,100.00
2022-09-05T06:30:25.750Z,100.00
2022-09-05T06:45:27.646Z,100.00
2022-09-05T07:00:24.697Z,100.00
2022-09-05T07:15:23.534Z,100.00
2022-09-05T07:30:23.656Z,100.00
2022-09-05T07:45:23.768Z,100.00
2022-09-05T08:00:29.477Z,100.00
2022-09-05T08:15:23.790Z,100.00
2022-09-05T08:30:25.974Z,100.00
2022-09-05T08:46:41.610Z,100.00
2022-09-05T09:00:27.638Z,100.00
2022-09-05T09:15:23.777Z,100.00
2022-09-05T09:30:23.819Z,100.00
2022-09-05T09:45:28.207Z,100.00
2022-09-05T10:00:25.863Z,100.00
2022-09-05T10:15:31.687Z,100.00
2022-09-05T10:30:31.939Z,99.23
2022-09-05T10:45:30.183Z,87.77
2022-09-05T11:02:24.439Z,75.40
2022-09-05T11:15:23.965Z,74.67
2022-09-05T11:30:29.004Z,64.47
2022-09-05T11:45:23.982Z,62.10
2022-09-05T12:01:41.199Z,60.63
2022-09-05T12:15:24.021Z,56.95
2022-09-05T12:30:36.419Z,52.10
2022-09-05T12:45:27.159Z,50.03
2022-09-05T13:03:00.953Z,50.97
2022-09-05T13:15:24.810Z,48.83
2022-09-05T13:34:39.165Z,47.90
2022-09-05T13:45:24.305Z,46.80
2022-09-05T14:00:27.732Z,45.20
2022-09-05T14:15:25.139Z,47.40
2022-09-05T14:32:09.304Z,50.50
2022-09-05T14:45:33.313Z,45.20
2022-09-05T15:02:53.850Z,45.33
2022-09-05T15:15:23.328Z,56.17
2022-09-05T15:30:25.604Z,75.07
2022-09-05T15:45:23.450Z,73.33
2022-09-05T16:00:23.432Z,67.60
2022-09-05T16:18:06.930Z,67.90
2022-09-05T16:30:23.675Z,69.80
2022-09-05T16:45:23.579Z,75.90
2022-09-05T17:00:27.958Z,81.30
2022-09-05T17:31:53.708Z,84.40
2022-09-05T17:45:38.009Z,92.20
2022-09-05T18:00:42.165Z,100.00
2022-09-05T18:15:24.321Z,100.00
2022-09-05T18:30:29.076Z,100.00
2022-09-05T18:45:28.328Z,100.00
2022-09-05T19:00:36.656Z,100.00
2022-09-05T19:15:24.314Z,100.00
2022-09-05T19:36:45.353Z,100.00
2022-09-05T19:47:38.172Z,100.00
2022-09-05T20:00:35.324Z,100.00
2022-09-05T20:15:24.087Z,100.00
2022-09-05T20:30:24.683Z,100.00
2022-09-05T20:45:24.082Z,100.00
2022-09-05T21:00:31.991Z,100.00
2022-09-05T21:15:52.251Z,100.00
2022-09-05T21:30:29.416Z,100.00
2022-09-05T21:47:48.553Z,100.00
2022-09-05T22:15:28.547Z,100.00
2022-09-05T22:30:24.187Z,100.00
2022-09-05T22:45:24.134Z,100.00
2022-09-05T23:00:24.136Z,100.00
2022-09-05T23:15:24.285Z,100.00
2022-09-05T23:30:33.116Z,100.00
2022-09-05T23:45:33.255Z,100.00
